createdAt,value
2022-08-18T00:01:59.372Z,31.42
2022-08-18T00:04:35.498Z,31.72
2022-08-18T00:07:04.295Z,31.41
2022-08-18T00:09:32.985Z,31.62
2022-08-18T00:12:01.533Z,31.58
2022-08-18T00:14:28.715Z,31.49
2022-08-18T00:16:56.149Z,31.59
2022-08-18T00:19:45.471Z,31.89
2022-08-18T00:22:15.012Z,32.10
2022-08-18T00:24:48.095Z,31.90
2022-08-18T00:27:28.774Z,32.09
2022-08-18T00:29:56.979Z,32.00
2022-08-18T00:32:25.712Z,32.23
2022-08-18T00:34:53.492Z,31.99
2022-08-18T00:37:21.295Z,32.04
2022-08-18T00:39:50.741Z,32.15
2022-08-18T00:42:28.684Z,32.06
2022-08-18T00:45:00.011Z,32.16
2022-08-18T00:47:41.385Z,32.12
2022-08-18T00:50:17.135Z,32.04
2022-08-18T00:52:45.536Z,32.01
2022-08-18T00:55:12.933Z,31.95
2022-08-18T00:57:40.094Z,31.98
2022-08-18T01:00:13.071Z,31.89
2022-08-18T01:02:43.251Z,32.05
2022-08-18T01:05:30.687Z,30.28
2022-08-18T01:07:58.116Z,30.41
2022-08-18T01:10:25.757Z,30.24
2022-08-18T01:12:53.820Z,30.84
2022-08-18T01:15:28.072Z,29.54
2022-08-18T01:18:16.655Z,30.33
2022-08-18T01:21:02.837Z,30.00
2022-08-18T01:23:30.016Z,30.15
2022-08-18T01:26:00.395Z,30.75
2022-08-18T01:28:27.971Z,31.14
2022-08-18T01:30:58.356Z,31.22
2022-08-18T01:33:32.438Z,31.57
2022-08-18T01:36:00.663Z,30.92
2022-08-18T01:38:28.095Z,31.38
2022-08-18T01:41:25.599Z,31.59
2022-08-18T01:43:42.713Z,31.00
2022-08-18T01:46:09.884Z,30.11
2022-08-18T01:48:37.209Z,31.39
2022-08-18T01:51:05.932Z,30.75
2022-08-18T01:53:33.296Z,30.95
2022-08-18T01:56:00.443Z,31.29
2022-08-18T01:58:31.554Z,30.74
2022-08-18T02:01:01.858Z,31.04
2022-08-18T02:03:30.519Z,29.61
2022-08-18T02:05:59.430Z,29.71
2022-08-18T02:08:28.107Z,30.60
2022-08-18T02:10:58.337Z,31.14
2022-08-18T02:13:26.499Z,30.79
2022-08-18T02:15:53.644Z,30.43
2022-08-18T02:18:41.399Z,30.60
2022-08-18T02:21:10.745Z,31.37
2022-08-18T02:23:40.059Z,31.38
2022-08-18T02:26:14.268Z,30.97
2022-08-18T02:28:41.759Z,31.38
2022-08-18T02:31:14.325Z,31.00
2022-08-18T02:33:42.186Z,31.69
2022-08-18T02:36:19.289Z,31.78
2022-08-18T02:38:54.666Z,32.04
2022-08-18T02:41:29.370Z,31.96
2022-08-18T02:43:58.052Z,31.47
2022-08-18T02:46:29.690Z,32.01
2022-08-18T02:48:58.070Z,32.12
2022-08-18T02:51:25.918Z,32.31
2022-08-18T02:53:54.027Z,32.35
2022-08-18T02:56:33.002Z,32.25
2022-08-18T02:59:08.786Z,32.28
2022-08-18T03:01:38.443Z,32.33
2022-08-18T03:04:06.668Z,32.24
2022-08-18T03:06:34.616Z,32.18
2022-08-18T03:09:04.445Z,31.94
2022-08-18T03:11:31.927Z,32.09
2022-08-18T03:14:00.380Z,32.09
2022-08-18T03:16:28.806Z,32.13
2022-08-18T03:18:55.990Z,32.03
2022-08-18T03:21:24.658Z,32.04
2022-08-18T03:24:00.755Z,31.80
2022-08-18T03:26:29.849Z,31.93
2022-08-18T03:28:58.021Z,31.98
2022-08-18T03:31:28.078Z,31.62
2022-08-18T03:33:59.364Z,31.87
2022-08-18T03:36:28.836Z,31.65
2022-08-18T03:38:56.775Z,31.70
2022-08-18T03:41:43.718Z,31.24
2022-08-18T03:44:14.394Z,31.46
2022-08-18T03:46:42.380Z,31.55
2022-08-18T03:49:09.666Z,31.84
2022-08-18T03:51:37.437Z,31.15
2022-08-18T03:54:05.618Z,29.28
2022-08-18T03:56:35.007Z,30.22
2022-08-18T03:59:04.235Z,29.11
2022-08-18T04:01:33.656Z,29.78
2022-08-18T04:04:02.331Z,29.27
2022-08-18T04:06:31.155Z,29.50
2022-08-18T04:09:00.547Z,28.47
2022-08-18T04:11:31.070Z,28.81
2022-08-18T04:14:04.516Z,28.61
2022-08-18T04:16:32.438Z,29.06
2022-08-18T04:19:05.454Z,29.03
2022-08-18T04:21:34.801Z,29.24
2022-08-18T04:24:04.066Z,28.38
2022-08-18T04:26:32.295Z,28.12
2022-08-18T04:29:02.475Z,28.61
2022-08-18T04:31:29.798Z,28.65
2022-08-18T04:33:57.448Z,29.09
2022-08-18T04:36:25.220Z,30.06
2022-08-18T04:38:52.425Z,29.99
2022-08-18T04:41:27.462Z,30.21
2022-08-18T04:43:55.796Z,30.83
2022-08-18T04:46:24.266Z,30.08
2022-08-18T04:48:52.356Z,29.42
2022-08-18T04:52:36.335Z,29.32
2022-08-18T04:54:07.545Z,29.55
2022-08-18T04:56:36.864Z,29.71
2022-08-18T04:59:10.878Z,29.64
2022-08-18T05:01:39.501Z,29.15
2022-08-18T05:04:06.913Z,29.44
2022-08-18T05:06:34.089Z,28.65
2022-08-18T05:09:03.067Z,28.53
2022-08-18T05:11:34.616Z,29.48
2022-08-18T05:14:02.929Z,29.31
2022-08-18T05:16:42.102Z,29.13
2022-08-18T05:19:19.195Z,30.18
2022-08-18T05:21:50.699Z,29.13
2022-08-18T05:24:19.608Z,28.95
2022-08-18T05:26:46.828Z,29.05
2022-08-18T05:29:19.047Z,29.05
2022-08-18T05:31:53.356Z,29.31
2022-08-18T05:34:21.295Z,30.06
2022-08-18T05:36:48.697Z,29.53
2022-08-18T05:39:21.494Z,29.28
2022-08-18T05:41:53.445Z,29.41
2022-08-18T05:44:27.532Z,29.06
2022-08-18T05:46:56.387Z,29.47
2022-08-18T05:49:24.989Z,29.18
2022-08-18T05:51:53.329Z,29.14
2022-08-18T05:54:40.093Z,28.37
2022-08-18T05:57:08.739Z,29.19
2022-08-18T05:59:37.464Z,29.84
2022-08-18T06:02:23.467Z,29.76
2022-08-18T06:05:16.560Z,29.25
2022-08-18T06:07:46.872Z,29.57
2022-08-18T06:10:14.166Z,29.72
2022-08-18T06:12:47.180Z,29.88
2022-08-18T06:15:20.942Z,29.37
2022-08-18T06:18:01.027Z,29.02
2022-08-18T06:20:47.276Z,28.91
2022-08-18T06:23:26.003Z,29.11
2022-08-18T06:25:55.333Z,29.78
2022-08-18T06:28:22.507Z,29.61
2022-08-18T06:31:08.346Z,29.62
2022-08-18T06:33:54.620Z,30.15
2022-08-18T06:36:46.339Z,29.77
2022-08-18T06:39:19.821Z,29.91
2022-08-18T06:41:49.062Z,30.36
2022-08-18T06:44:19.171Z,29.62
2022-08-18T06:46:46.315Z,29.88
2022-08-18T06:49:36.735Z,29.55
2022-08-18T06:52:19.584Z,30.38
2022-08-18T06:54:51.282Z,31.20
2022-08-18T06:57:27.985Z,31.49
2022-08-18T07:00:00.435Z,31.30
2022-08-18T07:02:45.090Z,31.63
2022-08-18T07:05:15.251Z,31.46
2022-08-18T07:07:43.336Z,31.56
2022-08-18T07:10:13.625Z,31.20
2022-08-18T07:12:41.073Z,31.44
2022-08-18T07:15:08.779Z,31.69
2022-08-18T07:17:42.728Z,32.07
2022-08-18T07:20:18.899Z,31.44
2022-08-18T07:22:53.466Z,32.33
2022-08-18T07:25:22.630Z,32.12
2022-08-18T07:27:50.564Z,31.47
2022-08-18T07:30:19.296Z,32.18
2022-08-18T07:32:57.335Z,32.20
2022-08-18T07:35:26.268Z,32.33
2022-08-18T07:37:55.479Z,32.57
2022-08-18T07:40:28.186Z,32.19
2022-08-18T07:43:01.453Z,32.99
2022-08-18T07:45:32.447Z,33.27
2022-08-18T07:48:38.788Z,32.42
2022-08-18T07:51:21.123Z,32.64
2022-08-18T07:53:56.187Z,33.01
2022-08-18T07:56:28.750Z,32.41
2022-08-18T07:58:56.310Z,33.67
2022-08-18T08:01:27.079Z,34.04
2022-08-18T08:07:22.515Z,32.82
2022-08-18T08:09:51.726Z,33.06
2022-08-18T08:12:19.378Z,33.53
2022-08-18T08:14:47.972Z,33.51
2022-08-18T08:17:23.616Z,32.74
2022-08-18T08:20:00.650Z,32.86
2022-08-18T08:22:49.321Z,33.75
2022-08-18T08:25:35.094Z,33.88
2022-08-18T08:28:12.325Z,34.14
2022-08-18T08:30:47.147Z,33.91
2022-08-18T08:33:33.521Z,34.36
2022-08-18T08:36:01.013Z,35.55
2022-08-18T08:38:42.151Z,35.47
2022-08-18T08:41:20.382Z,34.21
2022-08-18T08:43:49.472Z,35.19
2022-08-18T08:46:21.516Z,35.95
2022-08-18T08:49:07.571Z,35.92
2022-08-18T08:51:35.120Z,35.66
2022-08-18T08:54:07.276Z,35.62
2022-08-18T08:56:35.561Z,36.07
2022-08-18T08:59:13.225Z,36.12
2022-08-18T09:01:40.835Z,34.98
2022-08-18T09:04:14.364Z,35.04
2022-08-18T09:06:48.171Z,35.49
2022-08-18T09:09:24.726Z,35.20
2022-08-18T09:12:21.687Z,35.13
2022-08-18T09:14:56.528Z,35.00
2022-08-18T09:17:34.595Z,36.00
2022-08-18T09:20:07.911Z,35.53
2022-08-18T09:22:44.308Z,36.24
2022-08-18T09:25:12.995Z,36.71
2022-08-18T09:28:09.301Z,36.21
2022-08-18T09:30:51.507Z,36.46
2022-08-18T09:33:32.056Z,35.98
2022-08-18T09:35:59.196Z,36.71
2022-08-18T09:38:45.827Z,36.15
2022-08-18T09:41:32.362Z,36.28
2022-08-18T09:44:21.718Z,37.21
2022-08-18T09:46:55.903Z,35.81
2022-08-18T09:49:23.402Z,36.07
2022-08-18T09:51:51.519Z,35.28
2022-08-18T09:54:20.881Z,36.65
2022-08-18T09:56:54.091Z,36.18
2022-08-18T09:59:31.782Z,35.97
2022-08-18T10:02:20.068Z,36.78
2022-08-18T10:04:53.792Z,37.01
2022-08-18T10:07:23.179Z,36.81
2022-08-18T10:10:58.823Z,37.03
2022-08-18T10:13:17.663Z,36.83
2022-08-18T10:16:10.608Z,36.17
2022-08-18T10:18:41.604Z,36.57
2022-08-18T10:26:56.777Z,36.86
2022-08-18T10:29:23.922Z,37.41
2022-08-18T10:31:57.554Z,36.48
2022-08-18T10:34:38.390Z,37.61
2022-08-18T10:37:26.561Z,37.95
2022-08-18T10:39:55.889Z,37.30
2022-08-18T10:42:23.109Z,37.93
2022-08-18T10:44:50.579Z,38.10
2022-08-18T10:47:33.666Z,37.05
2022-08-18T10:50:03.913Z,36.90
2022-08-18T10:55:57.114Z,37.34
2022-08-18T10:58:44.118Z,37.12
2022-08-18T11:01:32.728Z,37.60
2022-08-18T11:04:14.291Z,38.06
2022-08-18T11:06:50.944Z,37.10
2022-08-18T11:09:25.031Z,38.05
2022-08-18T11:11:59.528Z,38.12
2022-08-18T11:14:27.513Z,38.27
2022-08-18T11:17:13.376Z,37.50
2022-08-18T11:19:43.618Z,38.16
2022-08-18T11:22:34.116Z,38.54
2022-08-18T11:25:03.047Z,38.80
2022-08-18T11:27:32.758Z,39.16
2022-08-18T11:30:01.330Z,38.98
2022-08-18T11:32:30.408Z,37.49
2022-08-18T11:35:00.379Z,38.05
2022-08-18T11:41:01.755Z,37.65
2022-08-18T11:43:13.724Z,37.67
2022-08-18T11:45:46.729Z,37.78
2022-08-18T11:48:14.166Z,37.78
2022-08-18T11:51:02.535Z,38.09
2022-08-18T11:53:32.907Z,37.90
2022-08-18T11:56:21.182Z,37.92
2022-08-18T11:59:04.124Z,39.01
2022-08-18T12:01:52.044Z,39.04
2022-08-18T12:04:19.717Z,39.07
2022-08-18T12:06:54.147Z,38.16
2022-08-18T12:10:15.379Z,38.21
2022-08-18T12:12:24.312Z,38.44
2022-08-18T12:15:13.623Z,37.58
2022-08-18T12:17:52.657Z,37.72
2022-08-18T12:20:21.411Z,38.07
2022-08-18T12:22:49.828Z,38.79
2022-08-18T12:28:05.555Z,39.00
2022-08-18T12:30:38.389Z,37.98
2022-08-18T12:33:12.204Z,38.49
2022-08-18T12:35:41.866Z,39.38
2022-08-18T12:38:13.048Z,39.41
2022-08-18T12:40:41.879Z,39.09
2022-08-18T12:43:09.298Z,39.68
2022-08-18T12:45:38.209Z,38.91
2022-08-18T12:48:06.684Z,39.22
2022-08-18T12:53:30.707Z,37.97
2022-08-18T12:59:11.203Z,39.57
2022-08-18T13:01:39.924Z,40.00
2022-08-18T13:04:12.495Z,38.89
2022-08-18T13:06:46.972Z,39.99
2022-08-18T13:09:48.639Z,40.39
2022-08-18T13:12:16.653Z,40.82
2022-08-18T13:14:44.844Z,40.54
2022-08-18T13:17:32.129Z,40.16
2022-08-18T13:20:00.790Z,40.40
2022-08-18T13:22:32.324Z,40.00
2022-08-18T13:25:01.507Z,39.82
2022-08-18T13:27:33.149Z,39.40
2022-08-18T13:30:26.198Z,39.96
2022-08-18T13:33:00.537Z,39.92
2022-08-18T13:35:37.914Z,39.43
2022-08-18T13:38:14.288Z,39.58
2022-08-18T13:40:48.287Z,39.98
2022-08-18T13:43:17.571Z,40.26
2022-08-18T13:45:53.051Z,40.61
2022-08-18T13:48:24.339Z,40.49
2022-08-18T13:50:55.735Z,40.19
2022-08-18T13:53:23.733Z,40.21
2022-08-18T13:55:52.066Z,40.25
2022-08-18T13:58:20.695Z,39.26
2022-08-18T14:00:51.653Z,40.23
2022-08-18T14:03:42.291Z,39.79
2022-08-18T14:06:07.894Z,40.33
2022-08-18T14:08:35.381Z,39.72
2022-08-18T14:11:02.897Z,40.37
2022-08-18T14:13:30.426Z,40.53
2022-08-18T14:16:18.717Z,40.45
2022-08-18T14:19:09.796Z,40.94
2022-08-18T14:21:58.377Z,40.07
2022-08-18T14:24:48.995Z,40.49
2022-08-18T14:27:17.816Z,39.50
2022-08-18T14:29:47.955Z,39.89
2022-08-18T14:32:18.043Z,39.78
2022-08-18T14:34:50.773Z,39.32
2022-08-18T14:37:18.616Z,40.36
2022-08-18T14:39:50.293Z,40.17
2022-08-18T14:42:19.151Z,39.64
2022-08-18T14:45:03.509Z,39.05
2022-08-18T14:47:45.622Z,40.07
2022-08-18T14:50:17.541Z,40.22
2022-08-18T14:52:51.212Z,40.36
2022-08-18T14:55:18.408Z,40.36
2022-08-18T14:57:45.597Z,40.63
2022-08-18T15:00:16.182Z,40.84
2022-08-18T15:02:46.751Z,40.47
2022-08-18T15:05:19.568Z,39.35
2022-08-18T15:07:51.232Z,39.80
2022-08-18T15:10:19.977Z,40.54
2022-08-18T15:12:51.574Z,40.75
2022-08-18T15:15:22.352Z,39.64
2022-08-18T15:17:52.835Z,38.80
2022-08-18T15:20:28.586Z,40.04
2022-08-18T15:23:22.836Z,39.92
2022-08-18T15:25:56.441Z,40.35
2022-08-18T15:28:25.297Z,40.02
2022-08-18T15:31:16.841Z,40.27
2022-08-18T15:33:40.003Z,40.62
2022-08-18T15:36:10.149Z,40.36
2022-08-18T15:38:38.396Z,40.50
2022-08-18T15:41:09.192Z,40.47
2022-08-18T15:43:45.951Z,40.63
2022-08-18T15:46:14.008Z,40.88
2022-08-18T15:48:43.924Z,40.84
2022-08-18T15:51:12.046Z,40.89
2022-08-18T15:53:44.638Z,41.18
2022-08-18T15:56:13.696Z,40.36
2022-08-18T15:58:41.142Z,40.98
2022-08-18T16:01:20.764Z,41.07
2022-08-18T16:03:50.029Z,40.95
2022-08-18T16:06:20.360Z,40.96
2022-08-18T16:08:47.694Z,41.14
2022-08-18T16:11:24.631Z,40.49
2022-08-18T16:13:58.896Z,40.43
2022-08-18T16:16:29.299Z,40.31
2022-08-18T16:19:04.761Z,40.53
2022-08-18T16:21:32.278Z,40.45
2022-08-18T16:23:59.466Z,40.33
2022-08-18T16:26:26.678Z,40.22
2022-08-18T16:28:54.132Z,40.24
2022-08-18T16:31:25.091Z,40.47
2022-08-18T16:33:53.814Z,40.28
2022-08-18T16:36:21.727Z,40.07
2022-08-18T16:38:48.885Z,40.09
2022-08-18T16:41:21.005Z,40.28
2022-08-18T16:43:48.491Z,40.20
2022-08-18T16:46:21.410Z,40.05
2022-08-18T16:48:50.415Z,40.05
2022-08-18T16:51:22.413Z,40.01
2022-08-18T16:53:52.493Z,39.69
2022-08-18T16:56:20.749Z,39.79
2022-08-18T16:59:06.515Z,39.72
2022-08-18T17:01:53.420Z,39.86
2022-08-18T17:04:22.509Z,39.89
2022-08-18T17:06:50.341Z,39.95
2022-08-18T17:09:18.326Z,39.90
2022-08-18T17:11:51.434Z,39.73
2022-08-18T17:14:22.904Z,39.57
2022-08-18T17:16:54.415Z,39.62
2022-08-18T17:19:26.166Z,39.55
2022-08-18T17:21:53.487Z,39.39
2022-08-18T17:24:31.784Z,38.32
2022-08-18T17:27:03.945Z,38.11
2022-08-18T17:29:43.960Z,38.94
2022-08-18T17:32:24.671Z,38.93
2022-08-18T17:34:55.945Z,38.74
2022-08-18T17:37:24.041Z,38.58
2022-08-18T17:39:54.979Z,38.42
2022-08-18T17:42:29.086Z,38.36
2022-08-18T17:45:07.378Z,38.19
2022-08-18T17:47:38.028Z,38.40
2022-08-18T17:50:26.806Z,38.50
2022-08-18T17:53:00.408Z,38.48
2022-08-18T17:55:34.903Z,38.42
2022-08-18T17:58:25.384Z,38.50
2022-08-18T18:00:52.878Z,38.55
2022-08-18T18:03:20.370Z,38.57
2022-08-18T18:05:49.393Z,38.54
2022-08-18T18:08:17.116Z,38.45
2022-08-18T18:13:34.233Z,38.37
2022-08-18T18:16:03.492Z,38.33
2022-08-18T18:18:41.968Z,38.25
2022-08-18T18:21:15.612Z,38.15
2022-08-18T18:23:45.925Z,38.30
2022-08-18T18:26:19.321Z,38.20
2022-08-18T18:28:46.661Z,38.18
2022-08-18T18:31:18.260Z,38.14
2022-08-18T18:33:45.639Z,37.92
2022-08-18T18:36:12.842Z,37.92
2022-08-18T18:38:46.119Z,37.94
2022-08-18T18:41:13.267Z,37.82
2022-08-18T18:43:42.107Z,37.85
2022-08-18T18:46:09.231Z,37.70
2022-08-18T18:48:57.311Z,37.87
2022-08-18T18:51:35.913Z,37.80
2022-08-18T18:54:23.785Z,37.60
2022-08-18T18:56:52.156Z,37.56
2022-08-18T18:59:38.579Z,37.47
2022-08-18T19:02:13.491Z,37.54
2022-08-18T19:05:07.722Z,37.54
2022-08-18T19:07:54.011Z,37.32
2022-08-18T19:10:33.479Z,37.33
2022-08-18T19:13:02.549Z,37.05
2022-08-18T19:15:29.696Z,36.95
2022-08-18T19:18:05.443Z,36.95
2022-08-18T19:20:35.973Z,36.94
2022-08-18T19:23:15.539Z,37.09
2022-08-18T19:26:01.599Z,37.02
2022-08-18T19:28:35.590Z,36.92
2022-08-18T19:31:24.711Z,36.94
2022-08-18T19:33:53.672Z,36.81
2022-08-18T19:36:39.175Z,37.10
2022-08-18T19:39:11.289Z,37.11
2022-08-18T19:41:39.524Z,37.20
2022-08-18T19:44:10.428Z,36.92
2022-08-18T19:46:38.584Z,36.97
2022-08-18T19:49:05.706Z,36.73
2022-08-18T19:51:34.471Z,36.52
2022-08-18T19:54:02.179Z,36.50
2022-08-18T19:56:41.282Z,36.32
2022-08-18T19:59:23.693Z,36.23
2022-08-18T20:02:00.089Z,36.12
2022-08-18T20:04:27.540Z,35.98
2022-08-18T20:07:17.499Z,35.81
2022-08-18T20:09:48.567Z,35.99
2022-08-18T20:12:16.262Z,35.75
2022-08-18T20:14:43.743Z,34.99
2022-08-18T20:17:21.325Z,35.41
2022-08-18T20:20:12.794Z,35.82
2022-08-18T20:22:45.594Z,35.91
2022-08-18T20:25:16.475Z,35.63
2022-08-18T20:27:45.906Z,35.09
2022-08-18T20:30:28.492Z,35.24
2022-08-18T20:33:11.504Z,35.57
2022-08-18T20:35:46.813Z,35.28
2022-08-18T20:38:18.775Z,34.66
2022-08-18T20:40:48.926Z,35.31
2022-08-18T20:43:30.526Z,35.58
2022-08-18T20:46:07.673Z,35.72
2022-08-18T20:48:42.305Z,34.64
2022-08-18T20:51:13.958Z,35.52
2022-08-18T20:53:49.929Z,35.32
2022-08-18T20:56:32.029Z,35.24
2022-08-18T20:59:21.819Z,34.05
2022-08-18T21:01:55.245Z,35.00
2022-08-18T21:04:34.267Z,35.45
2022-08-18T21:07:12.793Z,35.52
2022-08-18T21:09:40.845Z,35.33
2022-08-18T21:12:11.596Z,35.51
2022-08-18T21:14:42.155Z,35.46
2022-08-18T21:17:13.177Z,35.53
2022-08-18T21:19:40.682Z,35.70
2022-08-18T21:22:08.134Z,34.46
2022-08-18T21:24:37.877Z,35.36
2022-08-18T21:27:23.740Z,35.42
2022-08-18T21:29:52.123Z,35.13
2022-08-18T21:32:21.515Z,35.43
2022-08-18T21:34:48.653Z,35.26
2022-08-18T21:37:18.004Z,35.26
2022-08-18T21:39:48.242Z,35.31
2022-08-18T21:42:20.988Z,35.50
2022-08-18T21:44:48.305Z,35.39
2022-08-18T21:47:29.210Z,35.37
2022-08-18T21:49:59.001Z,34.90
2022-08-18T21:52:28.240Z,35.22
2022-08-18T21:54:57.528Z,35.09
2022-08-18T21:57:25.625Z,35.01
2022-08-18T22:00:22.244Z,35.24
2022-08-18T22:02:52.171Z,35.18
2022-08-18T22:05:28.095Z,35.14
2022-08-18T22:07:55.539Z,35.14
2022-08-18T22:10:47.648Z,35.14
2022-08-18T22:13:41.676Z,35.15
2022-08-18T22:16:24.635Z,35.25
2022-08-18T22:19:04.694Z,35.31
2022-08-18T22:21:32.192Z,35.26
2022-08-18T22:24:19.174Z,35.32
2022-08-18T22:27:02.236Z,35.13
2022-08-18T22:29:33.951Z,34.82
2022-08-18T22:32:01.650Z,34.97
2022-08-18T22:34:30.327Z,34.54
2022-08-18T22:37:23.804Z,34.79
2022-08-18T22:39:53.090Z,34.73
2022-08-18T22:42:21.371Z,34.90
2022-08-18T22:44:48.549Z,34.72
2022-08-18T22:47:15.836Z,34.14
2022-08-18T22:49:43.576Z,34.58
2022-08-18T22:52:30.051Z,34.53
2022-08-18T22:55:06.767Z,34.33
2022-08-18T22:57:36.490Z,34.36
2022-08-18T23:00:07.657Z,34.28
2022-08-18T23:02:37.450Z,34.28
2022-08-18T23:05:05.249Z,34.45
2022-08-18T23:07:32.567Z,34.65
2022-08-18T23:10:00.020Z,34.33
2022-08-18T23:12:27.487Z,34.58
2022-08-18T23:14:54.986Z,34.43
2022-08-18T23:17:22.530Z,34.09
2022-08-18T23:19:52.019Z,34.10
2022-08-18T23:22:19.594Z,34.26
2022-08-18T23:24:48.636Z,34.03
2022-08-18T23:27:16.868Z,34.05
2022-08-18T23:29:44.023Z,34.18
2022-08-18T23:32:11.200Z,34.22
2022-08-18T23:34:38.669Z,33.87
2022-08-18T23:37:06.459Z,34.00
2022-08-18T23:39:34.862Z,33.31
2022-08-18T23:42:02.999Z,33.53
2022-08-18T23:44:31.540Z,33.33
2022-08-18T23:46:59.932Z,33.48
2022-08-18T23:49:31.150Z,33.51
2022-08-18T23:51:59.116Z,33.40
2022-08-18T23:54:27.906Z,33.79
2022-08-18T23:56:55.392Z,33.70
2022-08-18T23:59:23.250Z,33.60
